Terminal Aerodrome Forecast
Issued by NWS Portland, OR

Home | Current Version | Previous Version | Text Only | Print | Product List | Glossary On
Versions: 1 2 3 4 5 6 7 8 9 10 11 12 13 14 15 16 17 18 19 20 21 22 23 24 25 26 27 28 29 30 31
000
FTUS46 KPQR 242320
TAFHIO
TAF
KHIO 242320Z 2500/2524 32007KT P6SM SCT025 BKN045
     FM250400 31005KT P6SM OVC025
     FM250700 00000KT P6SM OVC015
     FM251900 VRB03KT P6SM BKN018 OVC025=

USA.gov is the U.S. government's official web portal to all federal, state and local government web resources and services.